Time,TemperatureF,DewpointF,PressureIn,WindDirection,WindDirectionDegrees,WindSpeedMPH,WindSpeedGustMPH,Humidity,HourlyPrecipIn,Conditions,Clouds,dailyrainin,SoftwareType,DateUTC
2013-10-22 00:01:00,60.4,58.0,29.23,SSW,210,0.0,2.0,92,0.00,,,0.00,weatherlink.com 1.10,2013-10-21 23:01:00,
2013-10-22 00:31:00,60.8,58.0,29.23,South,172,0.0,1.0,89,0.00,,,0.00,weatherlink.com 1.10,2013-10-21 23:31:00,
2013-10-22 00:46:00,60.7,57.0,29.22,SSE,155,4.0,4.0,86,0.00,,,0.00,weatherlink.com 1.10,2013-10-21 23:46:00,
2013-10-22 01:16:00,61.0,55.0,29.22,SSW,211,6.0,13.0,81,0.00,,,0.00,weatherlink.com 1.10,2013-10-22 00:16:00,
2013-10-22 01:31:00,60.9,55.0,29.22,SSE,159,2.0,7.0,81,0.00,,,0.00,weatherlink.com 1.10,2013-10-22 00:31:00,
2013-10-22 01:46:00,61.3,55.0,29.21,SSW,207,5.0,13.0,79,0.00,,,0.00,weatherlink.com 1.10,2013-10-22 00:46:00,
2013-10-22 02:02:00,61.5,55.0,29.22,South,169,9.0,12.0,78,0.00,,,0.00,weatherlink.com 1.10,2013-10-22 01:02:00,
2013-10-22 02:16:00,61.8,55.0,29.21,WSW,253,8.0,20.0,77,0.00,,,0.00,weatherlink.com 1.10,2013-10-22 01:16:00,
2013-10-22 02:31:00,61.8,54.0,29.21,SSE,159,4.0,15.0,76,0.00,,,0.00,weatherlink.com 1.10,2013-10-22 01:31:00,
2013-10-22 02:46:00,61.3,54.0,29.22,SSW,194,4.0,15.0,78,0.00,,,0.00,weatherlink.com 1.10,2013-10-22 01:46:00,
2013-10-22 03:01:00,61.3,54.0,29.21,SSE,155,10.0,19.0,77,0.00,,,0.00,weatherlink.com 1.10,2013-10-22 02:01:00,
2013-10-22 03:16:00,61.3,54.0,29.20,SSW,203,8.0,13.0,77,0.00,,,0.00,weatherlink.com 1.10,2013-10-22 02:16:00,
2013-10-22 03:31:00,61.3,54.0,29.20,SW,225,4.0,21.0,76,0.00,,,0.00,weatherlink.com 1.10,2013-10-22 02:31:00,
2013-10-22 03:46:00,61.2,54.0,29.20,South,177,7.0,17.0,76,0.00,,,0.00,weatherlink.com 1.10,2013-10-22 02:46:00,
2013-10-22 04:01:00,60.9,54.0,29.20,SSE,163,4.0,12.0,77,0.00,,,0.00,weatherlink.com 1.10,2013-10-22 03:01:00,
2013-10-22 04:16:00,60.7,54.0,29.20,South,174,3.0,14.0,78,0.00,,,0.00,weatherlink.com 1.10,2013-10-22 03:16:00,
2013-10-22 04:31:00,60.6,54.0,29.19,South,187,4.0,9.0,78,0.00,,,0.00,weatherlink.com 1.10,2013-10-22 03:31:00,
2013-10-22 04:46:00,60.5,54.0,29.19,South,171,3.0,11.0,78,0.00,,,0.00,weatherlink.com 1.10,2013-10-22 03:46:00,
2013-10-22 05:01:00,60.2,53.0,29.18,South,179,3.0,6.0,78,0.00,,,0.00,weatherlink.com 1.10,2013-10-22 04:01:00,
2013-10-22 05:16:00,59.9,53.0,29.18,SE,138,0.0,6.0,78,0.00,,,0.00,weatherlink.com 1.10,2013-10-22 04:16:00,
2013-10-22 05:31:00,59.0,54.0,29.18,ESE,109,0.0,3.0,82,0.00,,,0.00,weatherlink.com 1.10,2013-10-22 04:31:00,
2013-10-22 05:46:00,58.3,54.0,29.18,East,82,1.0,2.0,86,0.00,,,0.00,weatherlink.com 1.10,2013-10-22 04:46:00,
2013-10-22 06:01:00,58.0,54.0,29.17,East,101,0.0,1.0,86,0.00,,,0.00,weatherlink.com 1.10,2013-10-22 05:01:00,
2013-10-22 06:16:00,57.5,54.0,29.17,East,100,0.0,1.0,87,0.00,,,0.00,weatherlink.com 1.10,2013-10-22 05:16:00,
2013-10-22 06:31:00,57.6,54.0,29.16,East,89,1.0,1.0,88,0.00,,,0.00,weatherlink.com 1.10,2013-10-22 05:31:00,
2013-10-22 06:46:00,57.6,54.0,29.16,NNW,344,1.0,1.0,87,0.00,,,0.00,weatherlink.com 1.10,2013-10-22 05:46:00,
2013-10-22 07:01:00,57.5,54.0,29.15,SSE,157,0.0,3.0,88,0.00,,,0.00,weatherlink.com 1.10,2013-10-22 06:01:00,
2013-10-22 07:16:00,57.8,54.0,29.15,East,87,0.0,2.0,88,0.00,,,0.00,weatherlink.com 1.10,2013-10-22 06:16:00,
2013-10-22 07:31:00,57.8,54.0,29.15,SSE,163,0.0,3.0,88,0.00,,,0.00,weatherlink.com 1.10,2013-10-22 06:31:00,
2013-10-22 07:46:00,58.0,55.0,29.15,SW,222,0.0,4.0,89,0.00,,,0.00,weatherlink.com 1.10,2013-10-22 06:46:00,
2013-10-22 08:01:00,57.9,55.0,29.14,East,86,2.0,6.0,90,0.00,,,0.00,weatherlink.com 1.10,2013-10-22 07:01:00,
2013-10-22 08:16:00,57.9,55.0,29.15,SW,220,0.0,2.0,91,0.00,,,0.00,weatherlink.com 1.10,2013-10-22 07:16:00,
2013-10-22 08:31:00,57.7,55.0,29.15,WSW,249,2.0,3.0,91,0.00,,,0.00,weatherlink.com 1.10,2013-10-22 07:31:00,
2013-10-22 08:47:00,57.6,55.0,29.15,East,85,1.0,2.0,92,0.00,,,0.00,weatherlink.com 1.10,2013-10-22 07:47:00,
2013-10-22 09:02:00,57.6,56.0,29.15,East,97,1.0,3.0,93,0.00,,,0.00,weatherlink.com 1.10,2013-10-22 08:02:00,
2013-10-22 09:17:00,57.7,56.0,29.15,SW,221,1.0,7.0,93,0.01,,,0.01,weatherlink.com 1.10,2013-10-22 08:17:00,
2013-10-22 09:32:00,58.3,56.0,29.15,ESE,115,1.0,11.0,91,0.02,,,0.02,weatherlink.com 1.10,2013-10-22 08:32:00,
2013-10-22 09:47:00,58.3,56.0,29.15,ESE,108,1.0,6.0,91,0.02,,,0.02,weatherlink.com 1.10,2013-10-22 08:47:00,
2013-10-22 10:02:00,58.3,55.0,29.15,WSW,238,6.0,9.0,89,0.02,,,0.02,weatherlink.com 1.10,2013-10-22 09:02:00,
2013-10-22 10:17:00,58.4,55.0,29.15,SSW,206,3.0,8.0,88,0.02,,,0.02,weatherlink.com 1.10,2013-10-22 09:17:00,
2013-10-22 10:32:00,58.7,55.0,29.14,SSE,154,3.0,8.0,87,0.00,,,0.02,weatherlink.com 1.10,2013-10-22 09:32:00,
2013-10-22 10:47:00,59.6,55.0,29.14,South,172,6.0,9.0,85,0.00,,,0.02,weatherlink.com 1.10,2013-10-22 09:47:00,
2013-10-22 11:02:00,59.9,55.0,29.14,SSE,167,1.0,12.0,84,0.00,,,0.02,weatherlink.com 1.10,2013-10-22 10:02:00,
2013-10-22 11:17:00,60.6,55.0,29.14,West,264,2.0,10.0,83,0.00,,,0.02,weatherlink.com 1.10,2013-10-22 10:17:00,
2013-10-22 11:32:00,61.5,55.0,29.13,South,179,4.0,10.0,80,0.00,,,0.02,weatherlink.com 1.10,2013-10-22 10:32:00,
2013-10-22 11:47:00,62.3,55.0,29.14,South,173,3.0,9.0,78,0.00,,,0.02,weatherlink.com 1.10,2013-10-22 10:47:00,
2013-10-22 12:02:00,62.7,55.0,29.13,South,176,5.0,13.0,77,0.00,,,0.02,weatherlink.com 1.10,2013-10-22 11:02:00,
2013-10-22 12:17:00,63.0,55.0,29.13,SSE,159,2.0,14.0,75,0.00,,,0.02,weatherlink.com 1.10,2013-10-22 11:17:00,
2013-10-22 12:32:00,63.2,55.0,29.13,SSW,204,3.0,13.0,75,0.00,,,0.02,weatherlink.com 1.10,2013-10-22 11:32:00,
2013-10-22 12:47:00,63.1,55.0,29.13,SSE,162,5.0,14.0,75,0.00,,,0.02,weatherlink.com 1.10,2013-10-22 11:47:00,
2013-10-22 13:02:00,62.0,55.0,29.13,South,183,1.0,7.0,79,0.02,,,0.04,weatherlink.com 1.10,2013-10-22 12:02:00,
2013-10-22 13:17:00,61.3,56.0,29.12,ESE,108,0.0,7.0,82,0.02,,,0.05,weatherlink.com 1.10,2013-10-22 12:17:00,
2013-10-22 13:32:00,60.7,56.0,29.11,East,91,0.0,4.0,85,0.02,,,0.05,weatherlink.com 1.10,2013-10-22 12:32:00,
2013-10-22 13:47:00,60.1,56.0,29.11,SSE,158,0.0,5.0,87,0.02,,,0.05,weatherlink.com 1.10,2013-10-22 12:47:00,
2013-10-22 14:02:00,59.8,56.0,29.11,SSW,198,3.0,4.0,87,0.01,,,0.05,weatherlink.com 1.10,2013-10-22 13:02:00,
2013-10-22 14:17:00,59.8,56.0,29.11,SSW,202,2.0,10.0,87,0.00,,,0.05,weatherlink.com 1.10,2013-10-22 13:17:00,
2013-10-22 14:32:00,60.0,56.0,29.11,East,82,2.0,2.0,87,0.00,,,0.05,weatherlink.com 1.10,2013-10-22 13:32:00,
2013-10-22 14:47:00,60.1,57.0,29.10,ENE,73,3.0,4.0,90,0.00,,,0.05,weatherlink.com 1.10,2013-10-22 13:47:00,
2013-10-22 15:18:00,63.0,56.0,29.09,East,88,8.0,13.0,78,0.00,,,0.05,weatherlink.com 1.10,2013-10-22 14:18:00,
2013-10-22 15:48:00,64.8,55.0,29.08,South,187,2.0,16.0,71,0.00,,,0.05,weatherlink.com 1.10,2013-10-22 14:48:00,
2013-10-22 16:03:00,64.5,55.0,29.08,South,173,11.0,12.0,71,0.00,,,0.05,weatherlink.com 1.10,2013-10-22 15:03:00,
2013-10-22 16:18:00,64.2,54.0,29.08,South,181,4.0,14.0,70,0.00,,,0.05,weatherlink.com 1.10,2013-10-22 15:18:00,
2013-10-22 16:33:00,63.6,55.0,29.08,WSW,242,3.0,14.0,73,0.00,,,0.05,weatherlink.com 1.10,2013-10-22 15:33:00,
2013-10-22 16:48:00,63.0,55.0,29.07,SSW,210,1.0,11.0,76,0.00,,,0.05,weatherlink.com 1.10,2013-10-22 15:48:00,
2013-10-22 17:03:00,62.6,56.0,29.07,ESE,115,2.0,6.0,78,0.00,,,0.05,weatherlink.com 1.10,2013-10-22 16:03:00,
2013-10-22 17:18:00,61.8,56.0,29.08,ENE,65,1.0,2.0,80,0.00,,,0.05,weatherlink.com 1.10,2013-10-22 16:18:00,
2013-10-22 17:33:00,61.3,55.0,29.08,SE,138,0.0,2.0,81,0.00,,,0.05,weatherlink.com 1.10,2013-10-22 16:33:00,
2013-10-22 17:48:00,60.7,56.0,29.07,East,91,2.0,3.0,83,0.00,,,0.05,weatherlink.com 1.10,2013-10-22 16:48:00,
2013-10-22 18:03:00,60.3,56.0,29.07,East,81,2.0,3.0,84,0.00,,,0.05,weatherlink.com 1.10,2013-10-22 17:03:00,
2013-10-22 18:18:00,60.0,56.0,29.07,ENE,61,1.0,8.0,86,0.00,,,0.05,weatherlink.com 1.10,2013-10-22 17:18:00,
2013-10-22 18:33:00,59.5,56.0,29.08,South,169,1.0,4.0,89,0.00,,,0.05,weatherlink.com 1.10,2013-10-22 17:33:00,
2013-10-22 18:48:00,59.0,56.0,29.08,SW,231,0.0,2.0,91,0.01,,,0.06,weatherlink.com 1.10,2013-10-22 17:48:00,
2013-10-22 19:03:00,58.8,57.0,29.07,SW,225,1.0,3.0,92,0.02,,,0.06,weatherlink.com 1.10,2013-10-22 18:03:00,
2013-10-22 19:18:00,58.7,56.0,29.07,SSE,150,1.0,7.0,91,0.02,,,0.07,weatherlink.com 1.10,2013-10-22 18:18:00,
2013-10-22 19:33:00,58.6,56.0,29.07,WSW,239,0.0,6.0,91,0.02,,,0.07,weatherlink.com 1.10,2013-10-22 18:33:00,
2013-10-22 19:48:00,58.7,56.0,29.06,SSW,205,2.0,8.0,91,0.02,,,0.07,weatherlink.com 1.10,2013-10-22 18:48:00,
2013-10-22 20:03:00,58.9,56.0,29.06,SSE,152,2.0,9.0,89,0.01,,,0.07,weatherlink.com 1.10,2013-10-22 19:03:00,
2013-10-22 20:18:00,58.9,55.0,29.06,SSW,207,0.0,6.0,88,0.00,,,0.07,weatherlink.com 1.10,2013-10-22 19:18:00,
2013-10-22 20:33:00,58.8,55.0,29.06,South,169,0.0,1.0,88,0.00,,,0.07,weatherlink.com 1.10,2013-10-22 19:33:00,
2013-10-22 20:48:00,58.7,56.0,29.05,South,169,1.0,1.0,89,0.00,,,0.07,weatherlink.com 1.10,2013-10-22 19:48:00,
2013-10-22 21:03:00,58.6,56.0,29.05,ESE,102,0.0,3.0,90,0.02,,,0.09,weatherlink.com 1.10,2013-10-22 20:03:00,
2013-10-22 21:18:00,58.3,56.0,29.05,South,172,0.0,1.0,90,0.02,,,0.09,weatherlink.com 1.10,2013-10-22 20:18:00,
2013-10-22 21:33:00,58.0,55.0,29.05,East,86,1.0,1.0,91,0.02,,,0.09,weatherlink.com 1.10,2013-10-22 20:33:00,
2013-10-22 21:48:00,57.9,55.0,29.04,SE,139,0.0,3.0,91,0.02,,,0.09,weatherlink.com 1.10,2013-10-22 20:48:00,
2013-10-22 22:03:00,57.6,55.0,29.04,South,173,0.0,2.0,91,0.00,,,0.09,weatherlink.com 1.10,2013-10-22 21:03:00,
2013-10-22 22:18:00,57.5,55.0,29.04,East,87,0.0,2.0,91,0.00,,,0.09,weatherlink.com 1.10,2013-10-22 21:18:00,
2013-10-22 22:33:00,57.5,55.0,29.04,East,82,1.0,2.0,91,0.00,,,0.09,weatherlink.com 1.10,2013-10-22 21:33:00,
2013-10-22 22:48:00,57.5,55.0,29.04,SE,125,0.0,2.0,91,0.00,,,0.09,weatherlink.com 1.10,2013-10-22 21:48:00,
2013-10-22 23:03:00,57.2,55.0,29.03,SE,143,0.0,1.0,91,0.00,,,0.09,weatherlink.com 1.10,2013-10-22 22:03:00,
2013-10-22 23:18:00,56.8,54.0,29.03,SE,142,0.0,1.0,91,0.00,,,0.09,weatherlink.com 1.10,2013-10-22 22:18:00,
2013-10-22 23:33:00,56.2,54.0,29.03,SE,142,0.0,0.0,92,0.00,,,0.09,weatherlink.com 1.10,2013-10-22 22:33:00,
2013-10-22 23:48:00,56.0,54.0,29.04,ENE,58,2.0,2.0,93,0.00,,,0.09,weatherlink.com 1.10,2013-10-22 22:48:00,